createdAt,value
2023-01-26T00:04:09.816Z,32.40
2023-01-26T00:09:14.753Z,29.80
2023-01-26T00:14:22.041Z,28.70
2023-01-26T00:19:23.889Z,24.30
2023-01-26T00:24:25.898Z,25.30
2023-01-26T00:29:27.666Z,30.20
2023-01-26T00:34:32.696Z,26.70
2023-01-26T00:39:34.452Z,25.80
2023-01-26T00:44:38.723Z,23.90
2023-01-26T00:49:40.461Z,28.80
2023-01-26T00:54:42.192Z,34.40
2023-01-26T00:59:43.856Z,32.80
2023-01-26T01:09:54.052Z,43.60
2023-01-26T01:14:55.770Z,32.40
2023-01-26T01:19:58.831Z,34.50
2023-01-26T01:25:00.521Z,30.90
2023-01-26T01:30:08.074Z,38.70
2023-01-26T01:35:10.075Z,29.90
2023-01-26T01:40:13.436Z,34.40
2023-01-26T01:45:27.694Z,33.30
2023-01-26T01:50:34.619Z,31.30
2023-01-26T01:55:36.670Z,33.50
2023-01-26T02:00:39.166Z,27.70
2023-01-26T02:05:48.934Z,25.60
2023-01-26T02:10:54.893Z,31.50
2023-01-26T02:15:59.563Z,33.60
2023-01-26T02:21:07.631Z,31.70
2023-01-26T02:26:21.134Z,35.10
2023-01-26T02:31:25.494Z,45.40
2023-01-26T02:36:31.056Z,42.10
2023-01-26T02:41:52.006Z,40.50
2023-01-26T02:46:55.101Z,38.70
2023-01-26T02:51:57.241Z,37.30
2023-01-26T02:56:59.123Z,38.50
2023-01-26T03:02:01.301Z,38.50
2023-01-26T03:07:03.179Z,40.10
2023-01-26T03:12:05.172Z,32.80
2023-01-26T03:17:06.972Z,39.70
2023-01-26T03:22:29.060Z,38.90
2023-01-26T03:27:40.692Z,39.30
2023-01-26T03:32:42.991Z,38.40
2023-01-26T03:37:54.538Z,43.40
2023-01-26T03:43:28.555Z,43.70
2023-01-26T03:48:49.515Z,43.00
2023-01-26T03:54:10.631Z,38.50
2023-01-26T03:59:15.303Z,42.80
2023-01-26T04:04:36.017Z,44.00
2023-01-26T04:09:39.663Z,41.40
2023-01-26T04:15:00.530Z,41.90
2023-01-26T04:20:21.972Z,38.80
2023-01-26T04:25:23.906Z,50.50
2023-01-26T04:30:26.218Z,53.10
2023-01-26T04:35:30.113Z,59.20
2023-01-26T04:40:32.097Z,60.00
2023-01-26T04:45:34.014Z,53.60
2023-01-26T04:50:36.640Z,58.60
2023-01-26T04:55:38.437Z,55.20
2023-01-26T05:00:40.353Z,55.90
2023-01-26T05:05:42.382Z,52.90
2023-01-26T05:10:45.151Z,56.40
2023-01-26T05:15:54.641Z,47.70
2023-01-26T05:21:12.745Z,54.00
2023-01-26T05:26:19.211Z,43.70
2023-01-26T05:31:32.497Z,42.60
2023-01-26T05:36:34.394Z,41.60
2023-01-26T05:41:36.227Z,47.70
2023-01-26T05:46:53.378Z,47.20
2023-01-26T05:51:55.870Z,47.40
2023-01-26T05:56:58.437Z,48.30
2023-01-26T06:02:02.183Z,47.80
2023-01-26T06:07:04.533Z,44.60
2023-01-26T06:12:19.976Z,42.80
2023-01-26T06:17:30.609Z,46.20
2023-01-26T06:22:35.111Z,39.90
2023-01-26T06:27:42.068Z,36.30
2023-01-26T06:32:50.606Z,40.50
2023-01-26T06:37:53.579Z,42.50
2023-01-26T06:42:55.612Z,44.50
2023-01-26T06:47:57.704Z,41.90
2023-01-26T06:53:02.950Z,48.00
2023-01-26T06:58:12.113Z,42.70
2023-01-26T07:03:50.276Z,60.20
2023-01-26T07:08:51.971Z,83.00
2023-01-26T07:13:53.719Z,57.70
2023-01-26T07:18:55.841Z,62.80
2023-01-26T07:23:57.922Z,52.50
2023-01-26T07:28:59.612Z,52.10
2023-01-26T07:39:03.673Z,54.90
2023-01-26T07:44:09.921Z,58.60
2023-01-26T07:49:12.786Z,43.20
2023-01-26T07:54:14.657Z,55.80
2023-01-26T07:59:16.312Z,44.30
2023-01-26T08:09:20.353Z,38.10
2023-01-26T08:14:22.137Z,32.70
2023-01-26T08:19:23.822Z,32.90
2023-01-26T08:24:26.874Z,37.50
2023-01-26T08:29:28.646Z,42.10
2023-01-26T08:34:30.372Z,42.10
2023-01-26T08:39:32.066Z,35.70
2023-01-26T08:44:33.784Z,41.80
2023-01-26T08:49:35.532Z,33.80
2023-01-26T08:54:37.261Z,36.20
2023-01-26T08:59:39.085Z,36.30
2023-01-26T09:04:40.794Z,47.40
2023-01-26T09:09:42.511Z,43.00
2023-01-26T09:14:44.255Z,41.00
2023-01-26T09:19:45.906Z,46.00
2023-01-26T09:24:47.606Z,54.20
2023-01-26T09:29:49.435Z,43.80
2023-01-26T09:34:51.323Z,48.20
2023-01-26T09:39:53.007Z,46.60
2023-01-26T09:45:06.900Z,50.00
2023-01-26T09:50:18.065Z,45.40
2023-01-26T09:55:22.156Z,43.40
2023-01-26T10:00:45.460Z,39.40
2023-01-26T10:06:14.580Z,39.60
2023-01-26T10:11:44.944Z,40.00
2023-01-26T10:16:53.155Z,42.40
2023-01-26T10:21:59.400Z,47.40
2023-01-26T10:27:01.191Z,41.90
2023-01-26T10:32:03.726Z,46.90
2023-01-26T10:37:30.732Z,42.10
2023-01-26T10:42:35.002Z,38.10
2023-01-26T10:47:37.446Z,41.50
2023-01-26T10:52:56.239Z,44.00
2023-01-26T10:57:58.477Z,48.00
2023-01-26T11:03:06.151Z,46.10
2023-01-26T11:08:33.755Z,46.40
2023-01-26T11:13:35.476Z,45.30
2023-01-26T11:18:56.044Z,45.70
2023-01-26T11:24:02.734Z,42.30
2023-01-26T11:29:17.537Z,48.50
2023-01-26T11:34:43.925Z,57.00
2023-01-26T11:40:04.919Z,46.10
2023-01-26T11:45:26.157Z,47.00
2023-01-26T11:50:30.943Z,47.10
2023-01-26T11:56:07.841Z,47.90
2023-01-26T12:01:55.854Z,47.90
2023-01-26T12:07:06.840Z,45.40
2023-01-26T12:12:32.489Z,44.90
2023-01-26T12:17:40.573Z,46.70
2023-01-26T12:22:49.555Z,42.90
2023-01-26T12:28:16.919Z,49.10
2023-01-26T12:33:19.490Z,43.00
2023-01-26T12:38:43.075Z,54.60
2023-01-26T12:44:10.085Z,50.60
2023-01-26T12:49:20.937Z,50.60
2023-01-26T12:54:40.930Z,52.50
2023-01-26T12:59:46.986Z,46.70
2023-01-26T13:04:51.033Z,51.80
2023-01-26T13:10:10.076Z,53.30
2023-01-26T13:15:14.973Z,50.00
2023-01-26T13:20:43.305Z,53.90
2023-01-26T13:26:10.043Z,48.70
2023-01-26T13:31:13.350Z,45.60
2023-01-26T13:36:19.073Z,50.50
2023-01-26T13:41:21.444Z,53.30
2023-01-26T13:46:45.160Z,53.50
2023-01-26T13:51:49.949Z,53.50
2023-01-26T13:57:06.564Z,47.00
2023-01-26T14:02:22.833Z,50.90
2023-01-26T14:07:40.900Z,53.40
2023-01-26T14:12:47.166Z,55.10
2023-01-26T14:17:52.570Z,46.90
2023-01-26T14:23:10.317Z,47.00
2023-01-26T14:28:17.177Z,50.10
2023-01-26T14:33:18.946Z,47.20
2023-01-26T14:38:21.150Z,64.30
2023-01-26T14:43:24.373Z,59.20
2023-01-26T14:48:34.879Z,48.40
2023-01-26T14:53:37.471Z,47.90
2023-01-26T14:58:39.484Z,43.90
2023-01-26T15:03:41.357Z,42.00
2023-01-26T15:08:53.842Z,38.30
2023-01-26T15:13:56.390Z,38.10
2023-01-26T15:19:07.942Z,30.90
2023-01-26T15:24:14.886Z,31.60
2023-01-26T15:29:31.070Z,31.50
2023-01-26T15:34:42.253Z,28.00
2023-01-26T15:39:44.025Z,27.10
2023-01-26T15:44:45.715Z,28.90
2023-01-26T15:54:50.864Z,35.60
2023-01-26T15:59:52.595Z,34.20
2023-01-26T16:04:54.376Z,37.70
2023-01-26T16:14:58.075Z,42.10
2023-01-26T16:20:00.349Z,40.80
2023-01-26T16:25:02.018Z,47.30
2023-01-26T16:35:14.661Z,38.70
2023-01-26T16:40:20.882Z,31.60
2023-01-26T16:45:28.943Z,40.50
2023-01-26T16:50:31.746Z,40.50
2023-01-26T16:55:33.542Z,42.50
2023-01-26T17:05:36.916Z,51.10
2023-01-26T17:10:48.932Z,50.80
2023-01-26T17:16:00.853Z,53.70
2023-01-26T17:26:05.226Z,54.90
2023-01-26T17:36:14.027Z,58.10
2023-01-26T17:41:16.660Z,52.70
2023-01-26T17:46:20.708Z,49.50
2023-01-26T17:51:23.243Z,46.30
2023-01-26T17:56:25.204Z,40.60
2023-01-26T18:01:27.037Z,42.40
2023-01-26T18:06:29.740Z,48.70
2023-01-26T18:11:31.738Z,51.20
2023-01-26T18:16:33.946Z,48.80
2023-01-26T18:21:36.979Z,46.90
2023-01-26T18:26:39.234Z,42.90
2023-01-26T18:31:41.092Z,48.20
2023-01-26T18:36:42.849Z,51.80
2023-01-26T18:41:44.675Z,48.20
2023-01-26T18:46:46.366Z,50.40
2023-01-26T18:56:50.060Z,55.60
2023-01-26T19:01:51.801Z,43.60
2023-01-26T19:06:53.489Z,49.90
2023-01-26T19:16:57.283Z,51.00
2023-01-26T19:21:59.176Z,47.00
2023-01-26T19:27:01.585Z,42.40
2023-01-26T19:32:03.515Z,38.40
2023-01-26T19:37:05.271Z,37.70
2023-01-26T19:42:07.027Z,45.90
2023-01-26T19:52:10.343Z,50.20
2023-01-26T19:57:12.141Z,56.60
2023-01-26T20:02:13.867Z,52.80
2023-01-26T20:07:15.796Z,77.40
2023-01-26T20:12:20.397Z,50.30
2023-01-26T20:17:22.293Z,42.20
2023-01-26T20:22:24.400Z,54.40
2023-01-26T20:27:26.499Z,47.10
2023-01-26T20:32:28.722Z,55.50
2023-01-26T20:37:30.657Z,54.70
2023-01-26T20:42:33.315Z,53.60
2023-01-26T20:47:38.334Z,59.40
2023-01-26T20:52:42.787Z,59.00
2023-01-26T20:57:45.453Z,64.70
2023-01-26T21:07:49.239Z,55.10
2023-01-26T21:12:51.506Z,56.40
2023-01-26T21:17:56.336Z,56.90
2023-01-26T21:22:59.905Z,56.80
2023-01-26T21:28:01.988Z,56.80
2023-01-26T21:33:03.859Z,52.10
2023-01-26T21:38:06.465Z,62.00
2023-01-26T21:43:08.232Z,48.50
2023-01-26T21:48:28.012Z,47.00
2023-01-26T21:53:29.835Z,57.20
2023-01-26T21:58:50.391Z,60.40
2023-01-26T22:03:57.379Z,50.30
2023-01-26T22:08:59.522Z,53.20
2023-01-26T22:14:12.644Z,53.80
2023-01-26T22:19:14.822Z,52.50
2023-01-26T22:24:17.934Z,54.20
2023-01-26T22:29:20.201Z,60.00
2023-01-26T22:34:22.624Z,48.60
2023-01-26T22:39:24.293Z,72.00
2023-01-26T22:44:28.898Z,75.90
2023-01-26T22:49:30.702Z,70.00
2023-01-26T22:54:32.493Z,82.00
2023-01-26T22:59:34.198Z,88.10
2023-01-26T23:09:37.548Z,73.30
2023-01-26T23:14:39.239Z,68.00
2023-01-26T23:25:02.584Z,80.50
2023-01-26T23:35:06.567Z,73.40
2023-01-26T23:40:09.279Z,57.70
2023-01-26T23:45:11.166Z,47.50
2023-01-26T23:50:13.085Z,59.10
2023-01-26T23:55:15.154Z,84.10
